Time;durP1;ratioP1;P1;durP2;ratioP2;P2;SDS_P1;SDS_P2;PMS_P1;PMS_P2;Temp;Humidity;BMP_temperature;BMP_pressure;BME280_temperature;BME280_humidity;BME280_pressure;Samples;Min_cycle;Max_cycle;Signal;HPM_P1;HPM_P2
2021/06/17 00:01:22;;;;;;;10.65;9.55;;;;;;;21.16;69.01;100660.31;4996274;28;20042;-89
2021/06/17 00:03:49;;;;;;;9.35;8.45;;;;;;;21.14;69.45;100659.53;4994942;28;20096;-88
2021/06/17 00:06:20;;;;;;;12.70;10.55;;;;;;;21.10;69.47;100658.81;5010816;28;20098;-85
2021/06/17 00:09:07;;;;;;;10.88;10.00;;;;;;;21.09;69.91;100651.81;5010858;28;20045;-88
2021/06/17 00:11:36;;;;;;;14.95;9.77;;;;;;;21.08;69.48;100658.06;5013603;28;20061;-88
2021/06/17 00:14:07;;;;;;;10.68;9.68;;;;;;;21.06;69.35;100657.28;4993236;28;20061;-88
2021/06/17 00:16:40;;;;;;;10.18;9.27;;;;;;;21.03;69.63;100656.56;5008478;28;20058;-86
2021/06/17 00:19:12;;;;;;;10.75;9.65;;;;;;;21.01;69.33;100656.66;4993276;28;20069;-87
2021/06/17 00:21:43;;;;;;;10.07;8.98;;;;;;;20.97;69.64;100653.28;4992612;28;20097;-87
2021/06/17 00:24:16;;;;;;;10.18;9.27;;;;;;;20.94;69.68;100645.47;5009726;28;21006;-87
2021/06/17 00:26:46;;;;;;;10.60;9.70;;;;;;;20.92;69.77;100647.34;5025533;28;20042;-87
2021/06/17 00:29:15;;;;;;;10.70;9.27;;;;;;;20.88;69.75;100648.44;4995005;28;20077;-87
2021/06/17 00:31:48;;;;;;;10.93;9.82;;;;;;;20.86;69.74;100652.13;4997499;28;20037;-87
2021/06/17 00:34:17;;;;;;;11.00;8.93;;;;;;;20.83;69.97;100653.16;5007717;28;20029;-86
2021/06/17 00:36:46;;;;;;;10.13;9.23;;;;;;;20.81;70.14;100653.22;5010745;28;20296;-87
2021/06/17 00:39:15;;;;;;;10.13;9.25;;;;;;;20.78;70.07;100658.72;5003187;28;20125;-86
2021/06/17 00:41:44;;;;;;;10.70;9.35;;;;;;;20.74;70.28;100650.97;4995778;28;20064;-87
2021/06/17 00:44:12;;;;;;;10.25;9.27;;;;;;;20.71;70.37;100659.13;5008580;28;20088;-87
2021/06/17 00:46:47;;;;;;;11.43;10.32;;;;;;;20.68;70.73;100654.78;5008141;28;20055;-87
2021/06/17 00:49:17;;;;;;;10.90;9.90;;;;;;;20.64;70.65;100655.88;5009574;28;20046;-86
2021/06/17 00:51:48;;;;;;;10.27;9.25;;;;;;;20.63;70.73;100657.66;5009978;28;20045;-87
2021/06/17 00:54:31;;;;;;;10.55;9.55;;;;;;;20.62;70.74;100663.06;5006268;28;20046;-86
2021/06/17 00:57:09;;;;;;;10.53;9.43;;;;;;;20.59;70.87;100656.09;4994748;28;20046;-89
2021/06/17 00:59:38;;;;;;;11.10;9.75;;;;;;;20.55;71.09;100654.53;5005483;28;20232;-86
2021/06/17 01:02:06;;;;;;;10.40;9.50;;;;;;;20.53;70.52;100648.44;4990915;28;20056;-87
2021/06/17 01:04:35;;;;;;;11.52;10.43;;;;;;;20.50;70.83;100648.59;4992356;28;20611;-87
2021/06/17 01:07:06;;;;;;;12.55;11.13;;;;;;;20.46;70.79;100649.69;5008282;28;20048;-86
2021/06/17 01:10:04;;;;;;;12.80;10.55;;;;;;;20.43;71.09;100647.19;4993992;28;20045;-86
2021/06/17 01:13:14;;;;;;;10.40;9.18;;;;;;;20.39;71.35;100651.81;5010237;28;20061;-86
2021/06/17 01:15:49;;;;;;;10.30;9.23;;;;;;;20.37;71.02;100643.03;5013356;28;20109;-86
2021/06/17 01:18:18;;;;;;;11.25;9.82;;;;;;;20.32;71.04;100642.41;5011852;28;21049;-86
2021/06/17 01:20:58;;;;;;;12.32;11.20;;;;;;;20.29;71.09;100639.91;5004187;28;20046;-86
2021/06/17 01:23:39;;;;;;;10.73;9.60;;;;;;;20.26;71.10;100635.59;4991288;28;20050;-86
2021/06/17 01:26:24;;;;;;;9.35;8.55;;;;;;;20.26;70.84;100643.56;5023547;28;20077;-86
2021/06/17 01:28:54;;;;;;;9.07;8.27;;;;;;;20.22;70.71;100627.84;4988661;28;20104;-87
2021/06/17 01:31:29;;;;;;;10.43;9.07;;;;;;;20.21;70.75;100631.44;4983183;28;20085;-87
2021/06/17 01:33:57;;;;;;;11.25;8.45;;;;;;;20.20;70.61;100624.44;4987298;28;20076;-86
2021/06/17 01:36:34;;;;;;;10.90;9.82;;;;;;;20.20;70.83;100627.94;4991620;28;20086;-86
2021/06/17 01:39:09;;;;;;;10.95;9.95;;;;;;;20.20;70.84;100627.09;5006541;28;20450;-86
2021/06/17 01:41:44;;;;;;;9.88;8.88;;;;;;;20.19;70.60;100623.53;4994580;28;20144;-88
2021/06/17 01:44:21;;;;;;;10.32;9.27;;;;;;;20.17;70.82;100622.78;5004342;28;20054;-88
2021/06/17 01:46:50;;;;;;;9.85;8.95;;;;;;;20.14;70.76;100628.22;5024180;28;21140;-89
2021/06/17 01:49:19;;;;;;;13.40;9.38;;;;;;;20.11;70.93;100634.56;5007753;28;20038;-85
2021/06/17 01:51:50;;;;;;;11.82;9.75;;;;;;;20.09;70.88;100638.22;5007968;28;20056;-87
2021/06/17 01:54:25;;;;;;;12.02;9.73;;;;;;;20.05;71.20;100632.22;5016288;28;20053;-87
2021/06/17 01:57:01;;;;;;;9.55;8.65;;;;;;;20.00;71.10;100635.09;5006888;28;20052;-87
2021/06/17 01:59:31;;;;;;;9.48;8.40;;;;;;;19.95;70.97;100629.13;5005808;28;20874;-87
2021/06/17 02:01:59;;;;;;;9.73;8.88;;;;;;;19.93;70.93;100627.47;4983004;28;20436;-86
2021/06/17 02:04:29;;;;;;;10.27;9.27;;;;;;;19.89;70.94;100626.75;4993773;28;20426;-86
2021/06/17 02:07:02;;;;;;;10.10;9.15;;;;;;;19.91;70.83;100624.06;4994293;28;20178;-86
2021/06/17 02:09:30;;;;;;;;;;;;;;;19.92;70.60;100626.63;5006036;28;20121;-85
2021/06/17 02:11:58;;;;;;;10.57;9.38;;;;;;;19.91;70.50;100618.75;4992197;28;19929;-86
2021/06/17 02:14:29;;;;;;;9.95;9.05;;;;;;;19.88;70.65;100621.53;5002331;28;20046;-86
2021/06/17 02:16:58;;;;;;;9.20;8.27;;;;;;;19.86;70.54;100618.97;4998140;28;20054;-86
2021/06/17 02:19:27;;;;;;;10.18;9.18;;;;;;;19.84;70.53;100620.81;4990906;28;20046;-88
2021/06/17 02:21:56;;;;;;;9.88;8.82;;;;;;;19.81;70.61;100615.63;4990354;28;20050;-86
2021/06/17 02:24:26;;;;;;;9.30;8.50;;;;;;;19.77;70.73;100612.25;4990254;28;20072;-87
2021/06/17 02:26:59;;;;;;;9.98;8.88;;;;;;;19.72;71.13;100605.44;4987581;28;20038;-87
2021/06/17 02:29:42;;;;;;;11.30;10.20;;;;;;;19.65;71.51;100600.44;4992212;28;20105;-86
2021/06/17 02:32:16;;;;;;;10.73;9.73;;;;;;;19.59;71.69;100600.72;4991828;28;20148;-86
2021/06/17 02:34:48;;;;;;;10.43;9.30;;;;;;;19.58;71.68;100606.09;5005142;28;20879;-86
2021/06/17 02:37:19;;;;;;;10.55;9.55;;;;;;;19.54;71.72;100604.53;5016686;28;20072;-86
2021/06/17 02:39:56;;;;;;;11.20;10.20;;;;;;;19.53;72.18;100605.47;4989068;28;20546;-87
2021/06/17 02:42:26;;;;;;;13.10;10.32;;;;;;;19.49;72.02;100610.06;5008260;28;20578;-86
2021/06/17 02:44:57;;;;;;;11.52;9.73;;;;;;;19.45;72.32;100603.16;4984246;28;20045;-86
2021/06/17 02:47:30;;;;;;;10.55;9.55;;;;;;;19.41;72.25;100606.91;4989869;28;20050;-86
2021/06/17 02:49:57;;;;;;;12.75;9.38;;;;;;;19.37;72.34;100600.00;4989440;28;20054;-86
2021/06/17 02:52:24;;;;;;;10.40;8.98;;;;;;;19.33;72.77;100605.47;5007872;28;20057;-86
2021/06/17 02:54:51;;;;;;;10.20;9.23;;;;;;;19.33;72.95;100600.16;4990563;28;20050;-86
2021/06/17 02:57:39;;;;;;;10.52;9.52;;;;;;;19.34;73.00;100611.63;5005229;28;20053;-88
2021/06/17 03:00:18;;;;;;;9.80;8.90;;;;;;;19.33;73.16;100604.59;4989555;28;20057;-84
2021/06/17 03:03:17;;;;;;;15.52;10.18;;;;;;;19.33;73.01;100610.78;5010776;28;20100;-85
2021/06/17 03:05:55;;;;;;;12.55;9.18;;;;;;;19.33;72.85;100604.59;4984578;28;20428;-85
2021/06/17 03:08:36;;;;;;;10.02;9.10;;;;;;;19.30;73.05;100604.75;4998571;28;20129;-86
2021/06/17 03:11:12;;;;;;;12.13;10.77;;;;;;;19.29;72.92;100610.97;4996373;28;20057;-85
2021/06/17 03:13:48;;;;;;;11.63;10.55;;;;;;;19.26;72.92;100608.47;5001963;28;20050;-86
2021/06/17 03:16:21;;;;;;;10.05;9.05;;;;;;;19.25;73.25;100602.28;4980311;28;20065;-84
2021/06/17 03:18:52;;;;;;;13.57;10.43;;;;;;;19.26;73.32;100598.72;4999687;28;20065;-84
2021/06/17 03:21:23;;;;;;;12.18;10.32;;;;;;;19.25;73.22;100602.28;4982297;28;20081;-86
2021/06/17 03:23:53;;;;;;;9.77;8.70;;;;;;;19.25;73.29;100601.44;5000541;28;20081;-84
2021/06/17 03:26:23;;;;;;;12.95;9.73;;;;;;;19.22;73.46;100599.78;5000510;28;20046;-85
2021/06/17 03:28:58;;;;;;;13.15;10.88;;;;;;;19.21;73.72;100602.53;4991654;28;20211;-84
2021/06/17 03:31:29;;;;;;;10.23;9.35;;;;;;;19.20;73.52;100603.44;5021126;28;20072;-85
2021/06/17 03:34:04;;;;;;;11.63;10.50;;;;;;;19.20;73.62;100603.44;5009100;28;20143;-87
2021/06/17 03:36:34;;;;;;;12.70;10.00;;;;;;;19.19;73.37;100605.25;4986234;28;20706;-85
2021/06/17 03:39:04;;;;;;;10.23;9.20;;;;;;;19.18;73.36;100598.22;5000435;28;20113;-85
2021/06/17 03:41:33;;;;;;;10.45;9.40;;;;;;;19.18;73.26;100599.06;4996046;28;20081;-86
2021/06/17 03:44:03;;;;;;;10.73;9.48;;;;;;;19.18;73.19;100604.38;4992825;28;20044;-85
2021/06/17 03:46:35;;;;;;;11.18;9.85;;;;;;;19.19;73.20;100605.25;5013705;28;20941;-85
2021/06/17 03:49:07;;;;;;;10.95;9.85;;;;;;;19.19;73.25;100599.94;5003048;28;20053;-86
2021/06/17 03:51:35;;;;;;;11.10;9.95;;;;;;;19.21;73.17;100605.19;4991404;28;20057;-85
2021/06/17 03:54:06;;;;;;;15.07;10.38;;;;;;;19.24;73.16;100605.03;5000077;28;20046;-85
2021/06/17 03:56:34;;;;;;;11.20;9.70;;;;;;;19.28;73.19;100614.56;4982548;28;20450;-84
2021/06/17 03:59:03;;;;;;;11.98;10.35;;;;;;;19.32;72.99;100606.41;4998554;28;20038;-84
2021/06/17 04:01:33;;;;;;;12.27;10.18;;;;;;;19.38;72.90;100609.72;5016859;28;20138;-84
2021/06/17 04:04:02;;;;;;;10.48;9.25;;;;;;;19.42;72.62;100611.28;4998018;28;20068;-84
2021/06/17 04:06:29;;;;;;;12.70;10.48;;;;;;;19.44;72.74;100610.28;5002809;28;20054;-87
2021/06/17 04:08:59;;;;;;;10.15;9.25;;;;;;;19.48;72.67;100603.88;4985392;28;20803;-85
2021/06/17 04:11:26;;;;;;;12.35;10.45;;;;;;;19.53;72.35;100603.69;4969590;28;20057;-83
2021/06/17 04:13:54;;;;;;;10.63;9.70;;;;;;;19.57;72.74;100602.59;4964089;28;20527;-85
2021/06/17 04:16:26;;;;;;;11.90;10.43;;;;;;;19.63;72.29;100596.13;4944932;28;20065;-85
2021/06/17 04:18:55;;;;;;;9.80;8.93;;;;;;;19.69;72.20;100602.97;4959216;28;20497;-85
2021/06/17 04:21:28;;;;;;;10.50;9.50;;;;;;;19.74;72.04;100599.13;4965711;28;20100;-85
2021/06/17 04:23:59;;;;;;;12.18;9.70;;;;;;;19.81;71.99;100597.03;4969684;28;20053;-82
2021/06/17 04:26:28;;;;;;;10.75;9.70;;;;;;;19.83;72.02;100588.09;4957640;28;20043;-84
2021/06/17 04:29:04;;;;;;;11.93;10.73;;;;;;;19.89;71.92;100591.38;4943124;28;20053;-84
2021/06/17 04:31:32;;;;;;;15.77;10.45;;;;;;;19.94;71.82;100587.56;4960427;28;20132;-83
2021/06/17 04:34:06;;;;;;;11.38;10.38;;;;;;;19.99;71.50;100584.69;4955799;28;20494;-82
2021/06/17 04:36:48;;;;;;;11.48;10.40;;;;;;;20.05;71.46;100586.16;4978091;28;20046;-83
2021/06/17 04:39:20;;;;;;;9.90;8.63;;;;;;;20.11;71.07;100592.03;4943199;28;20038;-83
2021/06/17 04:41:48;;;;;;;10.75;9.43;;;;;;;20.17;70.87;100591.72;4965173;28;20058;-83
2021/06/17 04:44:26;;;;;;;11.65;9.48;;;;;;;20.28;70.44;100595.66;4964165;28;20137;-84
2021/06/17 04:46:55;;;;;;;11.18;10.05;;;;;;;20.36;70.04;100592.59;4983402;28;20050;-82
2021/06/17 04:49:34;;;;;;;10.50;9.60;;;;;;;20.44;69.66;100596.59;4970723;28;20113;-82
2021/06/17 04:52:09;;;;;;;9.82;8.85;;;;;;;20.52;69.39;100593.56;4952208;28;20058;-84
2021/06/17 04:54:36;;;;;;;9.98;8.82;;;;;;;20.59;69.44;100592.28;4949687;28;20172;-81
2021/06/17 04:57:14;;;;;;;12.43;9.43;;;;;;;20.66;68.85;100599.00;4946992;28;20070;-85
2021/06/17 04:59:51;;;;;;;10.27;9.23;;;;;;;20.73;68.53;100606.69;4980618;28;20397;-83
2021/06/17 05:02:18;;;;;;;11.00;9.98;;;;;;;20.80;68.23;100606.28;4967647;28;20141;-84
2021/06/17 05:04:49;;;;;;;9.70;8.80;;;;;;;20.88;68.04;100610.34;4987509;28;20077;-85
2021/06/17 05:07:28;;;;;;;11.70;9.55;;;;;;;20.95;67.65;100604.63;4991175;28;20936;-83
2021/06/17 05:12:39;;;;;;;10.40;9.18;;;;;;;21.08;67.42;100602.16;4955183;28;20061;-84
2021/06/17 05:15:37;;;;;;;13.82;8.00;;;;;;;21.15;67.08;100608.88;4956729;28;20108;-83
2021/06/17 05:18:11;;;;;;;12.82;7.93;;;;;;;21.21;66.84;100615.69;4972060;28;20053;-84
2021/06/17 05:20:46;;;;;;;9.73;8.88;;;;;;;21.24;67.00;100610.19;4988858;28;20050;-83
2021/06/17 05:23:19;;;;;;;12.02;8.90;;;;;;;21.26;66.97;100613.63;4955442;28;20057;-83
2021/06/17 05:25:47;;;;;;;13.38;9.20;;;;;;;21.31;66.97;100624.00;4954529;28;20057;-83
2021/06/17 05:28:22;;;;;;;11.38;10.27;;;;;;;21.33;67.01;100624.81;4965374;28;20579;-83
2021/06/17 05:30:58;;;;;;;10.32;8.43;;;;;;;21.37;66.71;100620.13;4961569;28;20046;-85
2021/06/17 05:33:25;;;;;;;10.45;9.30;;;;;;;21.41;66.83;100629.72;4947857;28;20163;-83
2021/06/17 05:35:54;;;;;;;10.38;9.48;;;;;;;21.45;66.61;100632.09;4971253;28;20058;-84
2021/06/17 05:38:28;;;;;;;13.30;9.27;;;;;;;21.52;66.54;100637.94;4972927;28;20069;-83
2021/06/17 05:40:58;;;;;;;11.10;9.40;;;;;;;21.57;66.47;100641.25;4970235;28;20061;-84
2021/06/17 05:43:25;;;;;;;10.38;8.23;;;;;;;21.63;66.33;100640.06;4971222;28;20128;-84
2021/06/17 05:45:53;;;;;;;9.80;8.90;;;;;;;21.69;66.64;100645.03;4968015;28;20214;-84
2021/06/17 05:48:21;;;;;;;10.27;9.32;;;;;;;21.75;66.33;100635.84;4971715;28;20057;-84
2021/06/17 05:50:49;;;;;;;9.35;8.00;;;;;;;21.80;66.20;100639.97;4962965;28;20074;-84
2021/06/17 05:53:15;;;;;;;10.25;8.95;;;;;;;21.87;65.96;100640.47;4952879;28;20046;-83
2021/06/17 05:55:48;;;;;;;13.88;9.40;;;;;;;21.92;65.91;100641.06;4954705;28;20058;-84
2021/06/17 05:58:15;;;;;;;9.45;7.93;;;;;;;21.97;65.75;100640.81;4966908;28;20057;-83
2021/06/17 06:00:44;;;;;;;10.63;9.38;;;;;;;22.02;65.63;100643.22;4967129;28;20046;-84
2021/06/17 06:03:11;;;;;;;13.45;9.77;;;;;;;22.06;65.46;100640.28;4970966;28;20046;-84
2021/06/17 06:05:38;;;;;;;9.40;8.55;;;;;;;22.12;65.59;100641.75;4970056;28;20058;-83
2021/06/17 06:08:11;;;;;;;13.45;9.75;;;;;;;22.16;65.64;100645.94;4971384;28;20053;-84
2021/06/17 06:10:38;;;;;;;;;;;;;;;22.19;65.61;100642.25;4969066;28;20057;-83
2021/06/17 06:13:15;;;;;;;9.40;8.52;;;;;;;22.23;65.66;100638.47;4991079;28;19929;-83
2021/06/17 06:15:46;;;;;;;12.80;9.02;;;;;;;22.28;65.31;100637.25;5005013;28;20048;-85
2021/06/17 06:18:16;;;;;;;11.00;9.13;;;;;;;22.36;65.26;100635.97;5002366;28;20054;-85
2021/06/17 06:20:48;;;;;;;13.88;9.35;;;;;;;22.43;65.05;100630.16;5003746;28;20054;-85
2021/06/17 06:23:18;;;;;;;9.68;8.77;;;;;;;22.52;64.79;100633.25;5004948;28;20072;-85
2021/06/17 06:25:47;;;;;;;13.68;9.20;;;;;;;22.57;64.55;100634.69;4992254;28;20084;-84
2021/06/17 06:28:16;;;;;;;10.20;9.18;;;;;;;22.63;64.44;100636.13;4988908;28;20127;-85
2021/06/17 06:30:50;;;;;;;17.55;8.82;;;;;;;22.71;64.14;100636.53;5018979;28;20132;-84
2021/06/17 06:33:20;;;;;;;10.15;9.00;;;;;;;22.76;64.39;100637.13;4984518;28;20045;-84
2021/06/17 06:35:48;;;;;;;13.25;9.20;;;;;;;22.83;64.48;100636.72;4990023;28;20512;-84
2021/06/17 06:38:16;;;;;;;15.13;9.30;;;;;;;22.89;64.19;100641.69;5008106;28;20046;-85
2021/06/17 06:40:43;;;;;;;10.20;8.68;;;;;;;22.98;64.09;100643.81;4985700;28;20643;-84
2021/06/17 06:43:14;;;;;;;9.40;8.60;;;;;;;23.09;63.92;100653.84;5007619;28;20523;-83
2021/06/17 06:45:41;;;;;;;11.85;8.85;;;;;;;23.16;64.05;100641.84;5002580;28;20066;-84
2021/06/17 06:48:18;;;;;;;9.38;8.48;;;;;;;23.25;63.58;100649.28;4984961;28;20067;-84
2021/06/17 06:50:48;;;;;;;10.70;9.80;;;;;;;23.35;63.73;100640.69;5005407;28;20481;-84
2021/06/17 06:53:17;;;;;;;11.07;8.32;;;;;;;23.46;63.58;100646.22;5003654;28;20518;-83
2021/06/17 06:55:46;;;;;;;10.57;8.48;;;;;;;23.56;63.04;100651.84;4990138;28;20056;-84
2021/06/17 06:58:16;;;;;;;8.98;7.75;;;;;;;23.66;63.10;100657.47;5003619;28;20053;-83
2021/06/17 07:00:49;;;;;;;11.98;9.60;;;;;;;23.71;62.87;100658.88;5007232;28;20048;-84
2021/06/17 07:03:18;;;;;;;11.20;8.45;;;;;;;23.78;62.60;100656.69;4989538;28;20053;-84
2021/06/17 07:05:48;;;;;;;9.15;8.25;;;;;;;23.86;62.69;100656.19;4992052;28;20058;-84
2021/06/17 07:08:17;;;;;;;12.32;9.15;;;;;;;23.93;62.32;100655.69;4984641;28;20104;-84
2021/06/17 07:10:58;;;;;;;10.23;9.23;;;;;;;24.01;62.26;100657.88;4985857;28;20049;-83
2021/06/17 07:13:27;;;;;;;10.57;8.95;;;;;;;24.08;61.96;100647.66;5003650;28;20075;-85
2021/06/17 07:15:54;;;;;;;10.55;9.02;;;;;;;24.15;61.75;100656.97;5009688;28;20073;-84
2021/06/17 07:18:20;;;;;;;9.60;8.80;;;;;;;24.21;61.66;100664.59;5010514;28;21120;-85
2021/06/17 07:20:52;;;;;;;9.48;8.52;;;;;;;24.31;61.41;100659.47;4994833;28;20041;-85
2021/06/17 07:23:20;;;;;;;8.20;7.50;;;;;;;24.42;61.05;100658.78;5002863;28;20398;-85
2021/06/17 07:25:50;;;;;;;9.45;8.40;;;;;;;24.64;60.56;100662.69;5031322;28;20050;-83
2021/06/17 07:28:22;;;;;;;9.20;8.35;;;;;;;24.90;59.87;100658.22;5009905;28;20050;-83
2021/06/17 07:30:49;;;;;;;8.32;7.57;;;;;;;25.33;59.31;100668.63;4982666;28;20050;-85
2021/06/17 07:33:17;;;;;;;8.45;7.30;;;;;;;25.95;56.91;100671.41;4982576;28;20050;-84
2021/06/17 07:35:45;;;;;;;8.55;7.60;;;;;;;26.69;54.27;100679.31;4985176;28;20528;-84
2021/06/17 07:38:12;;;;;;;8.02;6.88;;;;;;;27.33;53.04;100670.75;4985117;28;20064;-83
2021/06/17 07:40:42;;;;;;;7.13;6.47;;;;;;;28.01;51.66;100665.28;4999178;28;20054;-85
2021/06/17 07:43:18;;;;;;;7.35;6.70;;;;;;;28.64;49.00;100674.50;5016887;28;20054;-83
2021/06/17 07:45:52;;;;;;;8.57;7.05;;;;;;;29.20;46.82;100678.69;4997502;28;20080;-85
2021/06/17 07:48:18;;;;;;;7.72;6.75;;;;;;;29.62;45.33;100681.31;4980719;28;20064;-84
2021/06/17 07:50:47;;;;;;;12.65;8.00;;;;;;;29.94;45.61;100680.25;4986267;28;20066;-84
2021/06/17 07:53:14;;;;;;;8.02;7.35;;;;;;;30.35;44.59;100675.63;4998225;28;20050;-83
2021/06/17 07:55:43;;;;;;;7.20;6.50;;;;;;;30.73;43.43;100674.88;4985259;28;20065;-85
2021/06/17 07:58:11;;;;;;;6.28;5.82;;;;;;;31.11;43.46;100678.56;4996925;28;20042;-84
2021/06/17 08:00:38;;;;;;;6.80;6.28;;;;;;;31.50;42.37;100679.22;4999580;28;20050;-84
2021/06/17 08:03:09;;;;;;;7.57;6.90;;;;;;;31.75;41.09;100673.31;4987254;28;20046;-84
2021/06/17 08:05:38;;;;;;;7.80;6.80;;;;;;;32.02;40.08;100671.53;4985656;28;20046;-84
2021/06/17 08:08:07;;;;;;;7.38;6.78;;;;;;;32.32;40.39;100673.06;4989057;28;20061;-84
2021/06/17 08:10:36;;;;;;;7.47;6.78;;;;;;;32.64;39.29;100672.44;4988273;28;20050;-85
2021/06/17 08:13:02;;;;;;;8.57;7.03;;;;;;;32.84;38.77;100669.56;4999528;28;20136;-85
2021/06/17 08:15:29;;;;;;;5.90;5.50;;;;;;;32.97;38.16;100670.03;5002713;28;20060;-84
2021/06/17 08:17:56;;;;;;;7.78;7.10;;;;;;;33.08;37.59;100659.91;4983721;28;20126;-84
2021/06/17 08:20:26;;;;;;;7.03;6.43;;;;;;;33.19;36.89;100665.03;5008454;28;20073;-84
2021/06/17 08:23:01;;;;;;;7.03;6.38;;;;;;;33.28;36.50;100661.41;5005315;28;20153;-85
2021/06/17 08:25:29;;;;;;;6.28;5.72;;;;;;;33.46;36.50;100653.16;5024053;28;20046;-86
2021/06/17 08:28:01;;;;;;;6.72;5.75;;;;;;;33.84;35.86;100658.22;5020159;28;20065;-84
2021/06/17 08:30:28;;;;;;;8.55;5.93;;;;;;;34.18;35.37;100667.28;4990826;28;20050;-85
2021/06/17 08:33:32;;;;;;;10.00;6.40;;;;;;;34.17;34.51;100669.16;5011578;28;20127;-84
2021/06/17 08:36:02;;;;;;;6.45;5.95;;;;;;;34.40;34.48;100661.19;5003339;28;20603;-84
2021/06/17 08:38:31;;;;;;;5.50;4.97;;;;;;;34.69;33.41;100667.97;5010018;28;20593;-85
2021/06/17 08:40:58;;;;;;;8.00;5.80;;;;;;;34.95;32.37;100666.94;4990341;28;20042;-85
2021/06/17 08:43:25;;;;;;;9.02;6.30;;;;;;;35.06;32.50;100663.00;5007977;28;20037;-86
2021/06/17 08:45:55;;;;;;;5.55;5.05;;;;;;;35.53;31.46;100659.44;5003661;28;20516;-86
2021/06/17 08:48:24;;;;;;;6.43;5.82;;;;;;;35.98;30.47;100662.44;5002268;28;20041;-84
2021/06/17 08:50:56;;;;;;;6.22;5.22;;;;;;;36.12;30.45;100651.81;4982601;28;20069;-84
2021/06/17 08:53:24;;;;;;;7.78;5.80;;;;;;;36.48;29.97;100660.22;4990787;28;20077;-87
2021/06/17 08:55:59;;;;;;;5.05;4.75;;;;;;;36.70;29.27;100652.16;4992236;28;20195;-85
2021/06/17 08:58:28;;;;;;;5.60;5.10;;;;;;;36.87;29.09;100650.13;5006910;28;20050;-85
2021/06/17 09:01:14;;;;;;;5.32;4.85;;;;;;;37.00;28.92;100644.03;4994303;28;20080;-85
2021/06/17 09:03:47;;;;;;;5.18;4.70;;;;;;;37.21;28.99;100641.38;4993331;28;20056;-84
2021/06/17 09:06:18;;;;;;;5.65;5.35;;;;;;;37.78;28.17;100638.91;4995458;28;20053;-87
2021/06/17 09:09:14;;;;;;;5.78;5.30;;;;;;;38.06;26.53;100647.22;5005893;28;20052;-87
2021/06/17 09:11:40;;;;;;;5.45;4.93;;;;;;;38.35;26.65;100631.75;4970482;28;20578;-86
2021/06/17 09:14:26;;;;;;;4.85;4.55;;;;;;;37.86;25.61;100635.25;5009735;28;20065;-86
2021/06/17 09:17:08;;;;;;;4.97;4.78;;;;;;;38.13;25.59;100633.63;4982972;28;20061;-85
2021/06/17 09:19:57;;;;;;;4.70;4.40;;;;;;;38.15;25.08;100641.63;5002224;28;20049;-86
2021/06/17 09:22:26;;;;;;;5.13;4.63;;;;;;;38.36;25.10;100643.53;4984938;28;20065;-86
2021/06/17 09:24:58;;;;;;;5.13;4.63;;;;;;;38.74;23.83;100637.75;5005072;28;20045;-86
2021/06/17 09:27:30;;;;;;;;;;;;;;;38.75;24.55;100642.19;5021377;28;20050;-85
2021/06/17 09:30:12;;;;;;;4.75;4.45;;;;;;;39.19;23.72;100642.84;5001983;28;19929;-87
2021/06/17 09:33:11;;;;;;;5.28;4.15;;;;;;;39.46;23.30;100632.03;4998049;28;20049;-87
2021/06/17 09:35:59;;;;;;;4.75;3.85;;;;;;;40.01;22.75;100629.22;5014572;28;20041;-85
2021/06/17 09:38:29;;;;;;;4.63;4.28;;;;;;;40.38;22.28;100637.94;5003427;28;20046;-86
2021/06/17 09:41:00;;;;;;;4.55;3.30;;;;;;;40.87;21.49;100624.78;4990057;28;20058;-86
2021/06/17 09:43:32;;;;;;;5.18;3.55;;;;;;;41.18;21.21;100626.81;5015448;28;20088;-85
2021/06/17 09:46:09;;;;;;;3.85;3.63;;;;;;;41.41;21.00;100624.63;4990886;28;20049;-84
2021/06/17 09:48:51;;;;;;;3.92;3.58;;;;;;;41.77;19.71;100625.91;4987572;28;20077;-86
2021/06/17 09:55:01;;;;;;;4.30;3.40;;;;;;;42.26;19.08;100618.81;4977371;28;20040;-86
2021/06/17 09:57:29;;;;;;;4.18;3.63;;;;;;;42.53;19.13;100613.06;5024725;23;20064;-83
2021/06/17 10:00:12;;;;;;;3.25;3.05;;;;;;;42.63;18.44;100616.16;4998626;28;20040;-84
2021/06/17 10:02:40;;;;;;;4.15;3.28;;;;;;;42.64;18.52;100614.22;5004635;28;20060;-82
2021/06/17 10:05:18;;;;;;;5.20;3.47;;;;;;;43.05;18.64;100615.50;4983463;28;20806;-82
2021/06/17 10:07:49;;;;;;;3.67;3.38;;;;;;;43.25;17.68;100612.50;5003299;28;20099;-83
2021/06/17 10:10:30;;;;;;;4.05;3.60;;;;;;;42.81;17.92;100614.50;4989752;28;20156;-83
2021/06/17 10:12:58;;;;;;;4.28;3.85;;;;;;;43.08;18.16;100620.56;5002158;28;20404;-81
2021/06/17 10:15:29;;;;;;;3.55;3.35;;;;;;;43.05;17.76;100621.00;5004260;28;20053;-82
2021/06/17 10:18:02;;;;;;;3.28;3.08;;;;;;;42.89;17.91;100618.84;4997398;28;20136;-81
2021/06/17 10:20:32;;;;;;;3.38;3.17;;;;;;;42.99;17.84;100621.91;4985293;28;20125;-83
2021/06/17 10:23:04;;;;;;;3.35;3.10;;;;;;;43.35;17.34;100620.22;5013048;28;20136;-83
2021/06/17 10:25:47;;;;;;;3.25;2.92;;;;;;;43.76;16.63;100621.34;5000941;28;20049;-83
2021/06/17 10:28:45;;;;;;;3.25;2.95;;;;;;;44.36;15.76;100622.31;4968792;28;20117;-83
2021/06/17 10:31:39;;;;;;;2.88;2.67;;;;;;;44.36;15.91;100627.84;4972927;28;20693;-81
2021/06/17 10:34:29;;;;;;;3.50;2.95;;;;;;;44.73;15.39;100621.25;4989011;28;20069;-83
2021/06/17 10:37:21;;;;;;;9.13;3.15;;;;;;;44.76;15.13;100623.53;4986840;28;20420;-82
2021/06/17 10:39:57;;;;;;;6.15;3.58;;;;;;;44.49;15.40;100617.66;5002063;28;20562;-84
2021/06/17 10:42:51;;;;;;;3.75;3.45;;;;;;;44.52;15.85;100614.41;4965098;28;20415;-84
2021/06/17 10:45:39;;;;;;;3.08;2.95;;;;;;;45.16;15.77;100610.84;4985281;28;20065;-83
2021/06/17 10:48:24;;;;;;;4.63;3.00;;;;;;;45.25;15.62;100610.19;4984045;28;20057;-84
2021/06/17 10:50:54;;;;;;;3.20;3.00;;;;;;;45.52;15.19;100609.63;4992091;28;20053;-83
2021/06/17 10:53:39;;;;;;;3.88;3.00;;;;;;;45.88;14.90;100612.19;4992537;28;20048;-83
2021/06/17 10:56:33;;;;;;;3.75;3.55;;;;;;;46.54;14.41;100603.31;4999929;28;20042;-85
2021/06/17 10:59:15;;;;;;;;;;;;;;;;;;;;;
2021/06/17 11:01:55;;;;;;;3.10;2.90;;;;;;;47.20;13.77;100600.59;4968904;28;20147;-82
2021/06/17 11:04:41;;;;;;;3.53;3.28;;;;;;;46.49;13.73;100604.06;5006866;28;20034;-82
2021/06/17 11:07:08;;;;;;;3.78;3.33;;;;;;;46.12;14.27;100599.06;4990526;28;20228;-81
2021/06/17 11:10:00;;;;;;;3.42;3.22;;;;;;;45.87;14.63;100593.94;4989621;28;20053;-82
2021/06/17 11:12:35;;;;;;;2.95;2.75;;;;;;;46.46;14.49;100595.44;4996041;28;20087;-82
2021/06/17 11:15:02;;;;;;;3.38;2.83;;;;;;;46.60;13.52;100596.75;4993274;28;20088;-83
2021/06/17 11:17:33;;;;;;;3.65;3.08;;;;;;;46.86;13.66;100586.00;4982343;28;20062;-81
2021/06/17 11:20:20;;;;;;;3.23;2.80;;;;;;;46.72;13.33;100591.13;4990882;28;20771;-82
2021/06/17 11:23:12;;;;;;;3.33;3.00;;;;;;;46.65;13.18;100584.88;4988630;28;20300;-83
2021/06/17 11:25:57;;;;;;;3.20;3.00;;;;;;;46.56;12.00;100584.53;4999925;28;21042;-85
2021/06/17 11:28:52;;;;;;;3.60;2.10;;;;;;;46.53;11.76;100571.16;4994145;28;20049;-83
2021/06/17 11:31:43;;;;;;;2.42;2.30;;;;;;;46.31;11.68;100565.59;4979743;28;20133;-82
2021/06/17 11:34:13;;;;;;;3.88;2.47;;;;;;;46.35;12.01;100575.94;4992387;28;20073;-81
2021/06/17 11:36:55;;;;;;;2.10;2.10;;;;;;;46.27;12.31;100575.47;4971430;28;20651;-84
2021/06/17 11:39:27;;;;;;;2.65;2.45;;;;;;;46.27;12.35;100567.19;4979915;28;20049;-82
2021/06/17 11:41:59;;;;;;;2.40;2.22;;;;;;;45.96;12.60;100558.41;4991884;28;20046;-83
2021/06/17 11:44:32;;;;;;;2.35;2.25;;;;;;;46.40;12.31;100564.06;4995556;28;20054;-84
2021/06/17 11:47:16;;;;;;;2.53;2.33;;;;;;;46.87;11.38;100569.16;4981660;28;20825;-83
2021/06/17 11:49:57;;;;;;;2.08;1.98;;;;;;;47.12;11.70;100565.03;5019915;28;20053;-84
2021/06/17 11:52:30;;;;;;;2.10;2.00;;;;;;;46.91;11.08;100568.63;5001853;28;20049;-85
2021/06/17 11:55:07;;;;;;;2.65;2.40;;;;;;;47.14;10.85;100571.13;4987026;28;20165;-83
2021/06/17 11:57:45;;;;;;;3.05;2.30;;;;;;;47.90;10.24;100569.38;4976361;28;20049;-85